Time;durP1;ratioP1;P1;durP2;ratioP2;P2;SDS_P1;SDS_P2;PMS_P1;PMS_P2;Temp;Humidity;BMP_temperature;BMP_pressure;BME280_temperature;BME280_humidity;BME280_pressure;Samples;Min_cycle;Max_cycle;Signal;HPM_P1;HPM_P2
2023/04/14 00:01:43;;;;;;;;;8.00;8.00;;;;;16.49;68.57;100502.00;5082220;28;45294;-83
2023/04/14 00:04:08;;;;;;;;;9.67;8.00;;;;;16.42;68.18;100496.66;5080589;28;45421;-83
2023/04/14 00:06:34;;;;;;;;;8.67;8.67;;;;;16.35;67.30;100488.69;5080378;28;46066;-83
2023/04/14 00:08:59;;;;;;;;;9.00;9.00;;;;;16.52;66.75;100512.25;5063715;28;48315;-83
2023/04/14 00:11:25;;;;;;;;;9.00;9.00;;;;;16.37;67.11;100496.53;5080402;28;45518;-83
2023/04/14 00:13:50;;;;;;;;;9.67;9.67;;;;;16.36;66.52;100495.69;5082224;28;45338;-83
2023/04/14 00:16:15;;;;;;;;;11.33;11.33;;;;;16.10;66.96;100472.59;5080052;28;55971;-83
2023/04/14 00:18:41;;;;;;;;;12.67;9.33;;;;;15.90;67.65;100463.59;5081812;28;46077;-83
2023/04/14 00:21:06;;;;;;;;;14.00;11.67;;;;;16.16;67.64;100509.22;5063537;28;45257;-83
2023/04/14 00:23:31;;;;;;;;;15.00;11.00;;;;;16.10;68.41;100500.22;5081806;28;45392;-83
2023/04/14 00:25:57;;;;;;;;;11.67;11.00;;;;;16.05;68.36;100507.25;5080354;28;46487;-83
2023/04/14 00:28:22;;;;;;;;;11.33;11.00;;;;;16.08;69.08;100501.47;5063108;28;47119;-82
2023/04/14 00:30:47;;;;;;;;;13.33;12.00;;;;;16.18;69.84;100514.38;5080232;28;45410;-82
2023/04/14 00:33:13;;;;;;;;;14.33;13.00;;;;;16.19;69.45;100505.31;5080241;28;45487;-83
2023/04/14 00:35:38;;;;;;;;;8.00;7.33;;;;;16.24;69.13;100494.75;5081313;28;45780;-82
2023/04/14 00:38:03;;;;;;;;;13.00;11.67;;;;;16.20;69.36;100496.22;5081253;27;48368;-82
2023/04/14 00:40:29;;;;;;;;;12.67;11.00;;;;;16.25;69.57;100486.47;5081384;28;45291;-82
2023/04/14 00:42:54;;;;;;;;;13.00;12.00;;;;;16.16;69.42;100474.38;5080444;28;45383;-83
2023/04/14 00:45:20;;;;;;;;;13.33;12.00;;;;;16.11;69.48;100464.34;5079977;28;47452;-83
2023/04/14 00:47:49;;;;;;;;;12.00;12.00;;;;;16.26;69.28;100490.81;5080235;28;46907;-84
2023/04/14 00:50:16;;;;;;;;;12.67;11.33;;;;;16.28;69.36;100488.72;5081391;27;45234;-83
2023/04/14 00:52:45;;;;;;;;;13.67;12.67;;;;;16.26;69.15;100490.81;5080145;28;45261;-83
2023/04/14 00:55:10;;;;;;;;;10.00;10.00;;;;;16.07;69.20;100483.75;5079590;28;45952;-82
2023/04/14 00:57:36;;;;;;;;;10.67;10.67;;;;;16.07;69.46;100497.97;5079556;28;47130;-82
2023/04/14 01:00:05;;;;;;;;;11.00;11.00;;;;;15.94;69.15;100466.69;5079954;28;45277;-82
2023/04/14 01:02:31;;;;;;;;;9.33;8.33;;;;;16.10;69.54;100494.84;5079982;28;45297;-83
2023/04/14 01:04:57;;;;;;;;;14.00;9.67;;;;;15.91;68.97;100467.13;5079545;28;45966;-84
2023/04/14 01:07:26;;;;;;;;;9.00;9.00;;;;;15.81;68.85;100451.53;5079508;28;47354;-83
2023/04/14 01:09:53;;;;;;;;;9.33;9.00;;;;;15.82;69.32;100460.38;5080916;27;45266;-82
2023/04/14 01:12:42;;;;;;;;;11.67;11.67;;;;;15.98;68.51;100494.72;5081043;27;45275;-83
2023/04/14 01:15:07;;;;;;;;;9.67;9.67;;;;;15.95;68.80;100497.00;5080269;27;45393;-83
2023/04/14 01:17:59;;;;;;;;;9.00;8.67;;;;;15.94;68.37;100482.75;5079142;28;47107;-83
2023/04/14 01:20:41;;;;;;;;;10.00;7.33;;;;;15.90;68.60;100485.03;5079320;28;45781;-83
2023/04/14 01:23:10;;;;;;;;;11.67;10.00;;;;;15.75;68.68;100479.97;5079533;28;45311;-83
2023/04/14 01:25:51;;;;;;;;;9.00;9.00;;;;;15.80;68.27;100491.94;5079308;28;47342;-82
2023/04/14 01:28:34;;;;;;;;;16.67;14.67;;;;;15.75;68.80;100487.22;5080562;28;46254;-83
2023/04/14 01:31:26;;;;;;;;;14.67;10.67;;;;;15.67;68.84;100474.88;5042156;28;45347;-83
2023/04/14 01:34:10;;;;;;;;;11.33;7.67;;;;;15.62;69.77;100482.72;5042206;28;45336;-83
2023/04/14 01:36:57;;;;;;;;;6.00;6.00;;;;;15.67;70.20;100482.09;5059990;28;45395;-82
2023/04/14 01:39:29;;;;;;;;;5.67;2.67;;;;;15.65;70.18;100491.19;5060016;28;45399;-83
2023/04/14 01:41:57;;;;;;;;;4.00;4.00;;;;;15.36;70.05;100447.84;5060282;28;45348;-83
2023/04/14 01:44:24;;;;;;;;;6.67;6.67;;;;;15.56;70.38;100480.94;5059025;28;45338;-82
2023/04/14 01:46:54;;;;;;;;;2.00;2.00;;;;;15.52;69.95;100476.00;5041930;28;47393;-83
2023/04/14 01:49:22;;;;;;;;;5.67;5.00;;;;;15.45;70.79;100477.91;5041820;28;47126;-83
2023/04/14 01:51:48;;;;;;;;;6.00;6.00;;;;;15.31;70.93;100484.31;5060021;28;45412;-83
2023/04/14 01:54:16;;;;;;;;;6.00;5.33;;;;;15.28;71.03;100458.81;5058723;28;45375;-83
2023/04/14 01:56:43;;;;;;;;;5.33;5.33;;;;;15.36;70.90;100479.16;5060113;28;45983;-83
2023/04/14 01:59:10;;;;;;;;;6.00;6.00;;;;;15.35;70.59;100480.19;5041850;28;47479;-83
2023/04/14 02:01:37;;;;;;;;;6.00;6.00;;;;;15.35;70.24;100486.38;5058534;28;46029;-83
2023/04/14 02:04:04;;;;;;;;;5.67;5.00;;;;;15.32;70.50;100491.34;5060103;28;45340;-83
2023/04/14 02:06:31;;;;;;;;;4.33;4.33;;;;;15.27;71.00;100471.34;5058196;28;46525;-83
2023/04/14 02:09:00;;;;;;;;;4.67;4.67;;;;;15.27;71.03;100484.75;5058241;28;47441;-84
2023/04/14 02:11:28;;;;;;;;;3.67;3.67;;;;;15.07;71.47;100458.06;5058297;28;45390;-83
2023/04/14 02:14:22;;;;;;;;;4.67;4.67;;;;;15.26;70.94;100480.44;5058768;28;45390;-83
2023/04/14 02:16:51;;;;;;;;;4.33;4.33;;;;;15.15;71.28;100475.75;5058338;28;47192;-83
2023/04/14 02:19:18;;;;;;;;;6.00;4.33;;;;;15.10;71.71;100478.22;5059680;28;45317;-83
2023/04/14 02:21:46;;;;;;;;;5.67;3.67;;;;;15.10;71.24;100462.16;5058357;28;46119;-83
2023/04/14 02:24:12;;;;;;;;;5.00;5.00;;;;;15.15;71.33;100465.84;5059638;28;45270;-83
2023/04/14 02:26:47;;;;;;;;;3.00;2.00;;;;;14.97;70.92;100444.31;5042261;28;46346;-84
2023/04/14 02:29:15;;;;;;;;;6.67;5.00;;;;;15.04;70.64;100457.66;5061724;28;47185;-83
2023/04/14 02:31:48;;;;;;;;;5.00;5.00;;;;;14.99;70.21;100467.16;5079840;28;45331;-83
2023/04/14 02:34:17;;;;;;;;;3.00;3.00;;;;;15.03;70.64;100480.94;5061609;28;45423;-83
2023/04/14 02:36:51;;;;;;;;;5.67;4.00;;;;;14.99;71.03;100477.84;5061265;28;47415;-83
2023/04/14 02:39:21;;;;;;;;;6.00;4.00;;;;;14.98;71.26;100483.41;5079498;28;45318;-83
2023/04/14 02:41:56;;;;;;;;;5.00;5.00;;;;;14.99;70.73;100487.72;5079882;28;45374;-83
2023/04/14 02:44:26;;;;;;;;;3.00;3.00;;;;;14.97;71.17;100471.06;5061380;28;45323;-83
2023/04/14 02:47:06;;;;;;;;;4.00;4.00;;;;;14.92;71.08;100461.00;5061170;28;46449;-83
2023/04/14 02:49:47;;;;;;;;;4.00;4.00;;;;;14.88;70.99;100465.13;5061209;28;47187;-83
2023/04/14 02:52:15;;;;;;;;;3.00;3.00;;;;;14.88;71.68;100463.25;5061379;28;45343;-83
2023/04/14 02:54:42;;;;;;;;;4.00;4.00;;;;;14.92;72.32;100468.19;5061107;28;45427;-83
2023/04/14 02:57:08;;;;;;;;;4.67;3.67;;;;;14.89;72.42;100466.75;5061350;28;46571;-83
2023/04/14 02:59:35;;;;;;;;;3.00;3.00;;;;;14.81;72.21;100458.97;5079537;28;46522;-83
2023/04/14 03:02:03;;;;;;;;;3.00;3.00;;;;;14.84;72.06;100462.03;5061435;28;45275;-83
2023/04/14 03:04:35;;;;;;;;;4.33;4.00;;;;;14.85;71.10;100460.19;5061348;28;45275;-83
2023/04/14 03:07:01;;;;;;;;;4.00;4.00;;;;;14.71;72.71;100454.00;5061014;28;47223;-83
2023/04/14 03:09:28;;;;;;;;;3.00;3.00;;;;;14.78;72.64;100454.84;5079260;28;46245;-83
2023/04/14 03:11:55;;;;;;;;;5.00;4.00;;;;;14.76;72.29;100451.53;5079353;28;45339;-84
2023/04/14 03:14:21;;;;;;;;;4.00;4.00;;;;;14.77;71.93;100459.34;5079520;28;45395;-83
2023/04/14 03:16:50;;;;;;;;;4.33;4.00;;;;;14.73;72.24;100443.94;5060937;28;46316;-83
2023/04/14 03:19:19;;;;;;;;;2.33;2.33;;;;;14.75;70.99;100447.19;5079378;28;45525;-82
2023/04/14 03:21:45;;;;;;;;;3.00;3.00;;;;;14.62;71.84;100440.03;5060900;28;45282;-82
2023/04/14 03:24:15;;;;;;;;;4.00;4.00;;;;;14.51;72.78;100428.13;5060894;28;45351;-83
2023/04/14 03:26:43;;;;;;;;;4.00;4.00;;;;;14.63;72.79;100439.81;5060809;28;46504;-82
2023/04/14 03:29:10;;;;;;;;;2.00;2.00;;;;;14.57;72.51;100423.78;5078896;28;46461;-83
2023/04/14 03:31:37;;;;;;;;;2.67;2.67;;;;;14.36;73.34;100423.00;5060887;28;45422;-83
2023/04/14 03:34:05;;;;;;;;;3.67;3.67;;;;;14.14;74.68;100434.75;5060940;28;45372;-83
2023/04/14 03:36:32;;;;;;;;;5.00;4.00;;;;;14.02;74.45;100412.31;5060497;28;46133;-83
2023/04/14 03:39:01;;;;;;;;;3.33;3.00;;;;;14.14;74.51;100437.41;5079531;28;46503;-83
2023/04/14 03:41:30;;;;;;;;;3.67;3.67;;;;;14.33;74.15;100431.41;5064240;28;45816;-83
2023/04/14 03:43:56;;;;;;;;;3.00;2.00;;;;;14.37;73.32;100420.09;5064307;28;45281;-83
2023/04/14 03:46:27;;;;;;;;;3.67;3.67;;;;;14.26;73.27;100418.91;5063912;28;46208;-83
2023/04/14 03:48:54;;;;;;;;;4.00;3.00;;;;;14.32;73.03;100406.56;5082288;28;46646;-83
2023/04/14 03:51:25;;;;;;;;;4.67;3.33;;;;;14.23;72.38;100403.28;5064023;28;45271;-83
2023/04/14 03:53:55;;;;;;;;;6.67;6.67;;;;;14.30;72.77;100418.50;5063887;28;45380;-83
2023/04/14 03:56:21;;;;;;;;;4.00;4.00;;;;;14.36;72.93;100431.00;5082020;28;45466;-84
2023/04/14 03:58:50;;;;;;;;;4.00;3.00;;;;;14.33;73.42;100423.41;5059013;28;48456;-83
2023/04/14 04:01:17;;;;;;;;;3.00;3.00;;;;;14.37;72.82;100421.97;5043721;28;46000;-83
2023/04/14 04:03:43;;;;;;;;;3.00;3.00;;;;;14.39;73.03;100417.22;5042927;28;45324;-83
2023/04/14 04:06:09;;;;;;;;;4.00;4.00;;;;;14.46;72.18;100419.91;5043353;28;46010;-83
2023/04/14 04:08:36;;;;;;;;;4.00;2.00;;;;;14.16;72.96;100420.34;5061433;28;45264;-83
2023/04/14 04:11:05;;;;;;;;;4.00;4.00;;;;;14.04;73.80;100412.94;5043776;28;45321;-83
2023/04/14 04:13:32;;;;;;;;;5.00;5.00;;;;;14.00;74.38;100423.22;5061835;28;45281;-83
2023/04/14 04:15:58;;;;;;;;;4.67;4.00;;;;;13.95;73.83;100416.84;5043504;28;46398;-83
2023/04/14 04:18:25;;;;;;;;;5.00;5.00;;;;;13.89;74.42;100415.81;5043105;28;46905;-83
2023/04/14 04:20:52;;;;;;;;;4.67;4.67;;;;;13.83;74.16;100409.41;5061670;28;45241;-83
2023/04/14 04:23:20;;;;;;;;;4.33;4.33;;;;;13.94;74.14;100421.34;5061769;28;45231;-84
2023/04/14 04:25:47;;;;;;;;;7.00;6.67;;;;;13.89;75.02;100416.63;5043019;28;46585;-83
2023/04/14 04:28:12;;;;;;;;;6.00;6.00;;;;;13.78;74.70;100411.06;5043226;28;46615;-83
2023/04/14 04:30:41;;;;;;;;;5.00;4.00;;;;;13.77;75.95;100426.28;5080822;28;45369;-83
2023/04/14 04:33:09;;;;;;;;;4.33;4.33;;;;;13.91;74.91;100411.09;5080922;28;45297;-84
2023/04/14 04:35:35;;;;;;;;;4.00;4.00;;;;;13.97;73.84;100415.59;5081442;28;45497;-82
2023/04/14 04:38:00;;;;;;;;;9.00;7.33;;;;;13.99;73.44;100416.25;5079842;28;47189;-83
2023/04/14 04:40:26;;;;;;;;;5.33;4.33;;;;;13.96;73.58;100407.78;5080323;28;45377;-83
2023/04/14 04:42:51;;;;;;;;;4.67;4.67;;;;;13.95;73.35;100401.63;5081708;28;45354;-83
2023/04/14 04:45:57;;;;;;;;;8.67;7.33;;;;;14.04;73.81;100407.63;5081529;27;45462;-83
2023/04/14 04:48:23;;;;;;;;;5.67;5.33;;;;;13.86;74.38;100384.97;5080090;28;48179;-83
2023/04/14 04:50:48;;;;;;;;;10.00;8.00;;;;;13.95;74.00;100404.28;5080692;28;45295;-83
2023/04/14 04:53:14;;;;;;;;;6.67;5.00;;;;;14.02;74.11;100409.66;5085975;27;45323;-81
2023/04/14 04:55:40;;;;;;;;;8.33;7.67;;;;;13.79;75.23;100391.34;5082101;28;45425;-82
2023/04/14 04:58:06;;;;;;;;;8.00;6.33;;;;;14.01;73.91;100398.13;5081895;28;47144;-82
2023/04/14 05:00:31;;;;;;;;;6.67;6.67;;;;;14.06;74.95;100386.84;5081482;28;45217;-82
2023/04/14 05:02:56;;;;;;;;;6.33;6.33;;;;;13.97;74.87;100396.91;5083333;28;45479;-82
2023/04/14 05:05:22;;;;;;;;;12.33;11.67;;;;;13.82;76.11;100396.28;5079622;28;45974;-82
2023/04/14 05:07:47;;;;;;;;;8.67;8.00;;;;;13.96;75.57;100391.78;5081608;27;55840;-82
2023/04/14 05:10:12;;;;;;;;;7.67;7.67;;;;;14.03;75.68;100387.25;5081002;28;45413;-82
2023/04/14 05:12:38;;;;;;;;;9.00;8.67;;;;;14.13;75.25;100384.97;5081129;28;45359;-83
2023/04/14 05:15:04;;;;;;;;;10.67;9.33;;;;;14.22;75.03;100390.94;5079821;28;46187;-83
2023/04/14 05:17:29;;;;;;;;;9.33;8.33;;;;;14.27;74.67;100382.28;5079845;28;47272;-82
2023/04/14 05:19:56;;;;;;;;;12.33;10.67;;;;;14.32;74.03;100389.69;5082431;28;45294;-82
2023/04/14 05:22:21;;;;;;;;;11.00;10.67;;;;;14.29;75.30;100382.91;5085975;28;45392;-81
2023/04/14 05:24:50;;;;;;;;;6.33;6.33;;;;;14.35;74.72;100383.94;5084990;27;45608;-82
2023/04/14 05:27:15;;;;;;;;;9.67;8.67;;;;;14.24;74.50;100370.16;5079239;28;45774;-84
2023/04/14 05:29:41;;;;;;;;;10.67;10.00;;;;;14.23;73.85;100367.69;5078108;28;45266;-83
2023/04/14 05:32:07;;;;;;;;;9.33;9.33;;;;;14.36;74.44;100382.88;5072992;28;45389;-80
2023/04/14 05:34:32;;;;;;;;;10.67;10.67;;;;;14.36;74.80;100369.53;5044726;28;45937;-81
2023/04/14 05:36:58;;;;;;;;;12.33;9.33;;;;;14.45;74.97;100384.31;5045005;28;48309;-82
2023/04/14 05:39:23;;;;;;;;;12.00;9.00;;;;;14.40;75.42;100378.78;5062430;28;45261;-80
2023/04/14 05:41:48;;;;;;;;;9.00;7.33;;;;;14.46;75.36;100383.28;5063121;28;45306;-79
2023/04/14 05:44:14;;;;;;;;;10.67;10.67;;;;;14.46;75.13;100372.59;5061727;28;45295;-79
2023/04/14 05:46:40;;;;;;;;;9.67;9.67;;;;;14.46;75.29;100380.59;5059067;28;62904;-78
2023/04/14 05:49:05;;;;;;;;;12.00;11.00;;;;;14.56;74.95;100388.22;5064945;28;46053;-79
2023/04/14 05:51:31;;;;;;;;;9.33;7.67;;;;;14.54;75.19;100379.56;5065399;28;45397;-78
2023/04/14 05:53:56;;;;;;;;;10.00;10.00;;;;;14.47;76.03;100368.06;5067032;28;45387;-78
2023/04/14 05:56:22;;;;;;;;;9.00;7.33;;;;;14.49;75.90;100366.81;5067546;28;45663;-79
2023/04/14 05:58:47;;;;;;;;;11.00;10.00;;;;;14.49;75.83;100358.81;5060562;28;45349;-79
2023/04/14 06:01:12;;;;;;;;;12.33;8.67;;;;;14.53;76.17;100361.88;5069607;28;45578;-78
2023/04/14 06:03:38;;;;;;;;;10.00;10.00;;;;;14.58;76.31;100356.72;5066181;28;59141;-79
2023/04/14 06:06:04;;;;;;;;;13.33;12.33;;;;;14.56;76.57;100357.97;5054205;28;47226;-78
2023/04/14 06:08:29;;;;;;;;;13.67;11.67;;;;;14.56;77.16;100364.16;5077461;28;45322;-78
2023/04/14 06:10:55;;;;;;;;;11.33;11.00;;;;;14.48;77.86;100345.63;5049080;28;45368;-80
2023/04/14 06:13:21;;;;;;;;;9.67;9.67;;;;;14.71;76.79;100363.06;5073053;28;45431;-77
2023/04/14 06:15:50;;;;;;;;;12.33;12.00;;;;;14.73;76.47;100342.28;5084852;28;45140;-77
2023/04/14 06:18:16;;;;;;;;;13.33;13.33;;;;;14.86;76.31;100344.09;5090555;28;45305;-76
2023/04/14 06:20:41;;;;;;;;;10.00;9.67;;;;;14.93;77.09;100336.88;5099886;28;45552;-77
2023/04/14 06:23:06;;;;;;;;;13.00;11.67;;;;;15.06;75.92;100354.72;5079679;28;47241;-76
2023/04/14 06:25:33;;;;;;;;;10.33;10.33;;;;;15.07;75.92;100337.63;5086267;28;46386;-78
2023/04/14 06:28:02;;;;;;;;;7.67;7.67;;;;;15.10;75.84;100339.06;5086419;28;45260;-78
2023/04/14 06:30:28;;;;;;;;;12.00;11.33;;;;;15.10;76.26;100352.44;5071625;28;45357;-77
2023/04/14 06:32:54;;;;;;;;;12.67;11.00;;;;;14.94;76.67;100324.31;5074388;28;46993;-77
2023/04/14 06:35:19;;;;;;;;;11.00;11.00;;;;;15.23;76.54;100344.31;5091141;28;45532;-77
2023/04/14 06:37:44;;;;;;;;;12.00;11.00;;;;;15.32;76.59;100330.72;5094097;28;45350;-78
2023/04/14 06:40:10;;;;;;;;;10.00;10.00;;;;;15.46;76.57;100332.25;5075840;28;45253;-77
2023/04/14 06:42:35;;;;;;;;;12.00;12.00;;;;;15.55;77.16;100334.66;5088065;28;45323;-78
2023/04/14 06:45:01;;;;;;;;;11.00;11.00;;;;;15.53;76.40;100321.47;5065677;28;47441;-77
2023/04/14 06:47:26;;;;;;;;;13.67;10.67;;;;;15.60;76.11;100318.75;5079465;28;45716;-78
2023/04/14 06:49:51;;;;;;;;;12.67;12.67;;;;;15.64;76.42;100306.56;5061589;28;45543;-80
2023/04/14 06:52:17;;;;;;;;;11.00;9.33;;;;;15.62;75.74;100314.81;5079737;28;45319;-78
2023/04/14 06:54:42;;;;;;;;;10.67;10.33;;;;;15.67;76.08;100310.66;5078868;28;53048;-80
2023/04/14 06:57:08;;;;;;;;;11.67;10.33;;;;;15.70;76.34;100308.38;5061401;28;45371;-78
2023/04/14 06:59:33;;;;;;;;;11.00;11.00;;;;;15.76;76.35;100304.00;5080299;28;45308;-79
2023/04/14 07:01:59;;;;;;;;;11.33;11.33;;;;;15.93;76.36;100314.97;5079813;28;45284;-79
2023/04/14 07:04:24;;;;;;;;;15.00;13.00;;;;;15.94;75.80;100313.09;5057027;28;47266;-79
2023/04/14 07:06:50;;;;;;;;;10.00;10.00;;;;;15.99;76.07;100302.59;5040765;28;45600;-79
2023/04/14 07:09:16;;;;;;;;;10.33;10.33;;;;;16.18;76.44;100314.13;5041483;28;45319;-78
2023/04/14 07:11:41;;;;;;;;;12.00;11.33;;;;;16.23;75.63;100298.22;5059897;28;45344;-77
2023/04/14 07:14:07;;;;;;;;;14.67;13.00;;;;;16.39;76.78;100314.75;5069686;28;45423;-79
2023/04/14 07:16:32;;;;;;;;;9.67;9.67;;;;;16.45;76.96;100305.81;5066001;28;45213;-79
2023/04/14 07:18:57;;;;;;;;;13.00;12.33;;;;;16.59;76.38;100300.28;5064104;28;45348;-80
2023/04/14 07:21:23;;;;;;;;;11.67;11.67;;;;;16.66;75.55;100301.00;5071593;28;45748;-80
2023/04/14 07:23:48;;;;;;;;;13.67;12.00;;;;;16.74;76.18;100302.56;5065034;28;50186;-80
2023/04/14 07:26:13;;;;;;;;;13.33;13.00;;;;;16.95;75.72;100303.94;5087644;28;55785;-79
2023/04/14 07:28:39;;;;;;;;;14.33;13.00;;;;;17.06;73.92;100299.66;5088552;28;45380;-78
2023/04/14 07:31:08;;;;;;;;;12.67;12.00;;;;;17.14;74.26;100277.06;5084219;27;45409;-77
2023/04/14 07:33:37;;;;;;;;;14.00;12.00;;;;;17.27;74.63;100290.28;5086633;28;46379;-80
2023/04/14 07:36:08;;;;;;;;;15.00;14.00;;;;;17.06;74.55;100240.59;5088567;27;45525;-77
2023/04/14 07:38:36;;;;;;;;;11.67;11.67;;;;;17.42;74.46;100275.63;5085359;27;45272;-78
2023/04/14 07:41:04;;;;;;;;;9.00;9.00;;;;;17.40;73.79;100266.97;5086264;27;45236;-79
2023/04/14 07:43:36;;;;;;;;;10.33;10.33;;;;;17.56;73.50;100260.09;5087725;28;45452;-80
2023/04/14 07:46:06;;;;;;;;;14.00;12.00;;;;;17.75;74.27;100284.19;5069810;27;45472;-79
2023/04/14 07:48:33;;;;;;;;;11.33;11.33;;;;;17.95;73.23;100277.59;5064628;28;45433;-81
2023/04/14 07:50:58;;;;;;;;;10.33;10.33;;;;;17.84;72.53;100282.75;5081763;28;45742;-78
2023/04/14 07:53:24;;;;;;;;;11.00;10.00;;;;;18.05;71.60;100272.47;5086221;28;46522;-78
2023/04/14 07:55:49;;;;;;;;;11.00;9.33;;;;;18.03;71.35;100266.50;5085538;28;45350;-78
2023/04/14 07:58:15;;;;;;;;;11.00;10.33;;;;;17.95;72.08;100270.38;5066072;28;48673;-79
2023/04/14 08:00:40;;;;;;;;;9.00;9.00;;;;;17.89;72.88;100264.06;5064670;28;54367;-79
2023/04/14 08:03:06;;;;;;;;;7.67;7.00;;;;;17.93;72.39;100259.03;5065648;28;46937;-80
2023/04/14 08:05:32;;;;;;;;;9.67;9.67;;;;;17.95;72.39;100262.31;5063686;28;45818;-79
2023/04/14 08:07:58;;;;;;;;;8.00;8.00;;;;;17.89;72.63;100257.84;5083332;28;45260;-79
2023/04/14 08:10:23;;;;;;;;;7.00;7.00;;;;;17.97;73.10;100254.81;5064205;28;47298;-79
2023/04/14 08:12:48;;;;;;;;;8.67;8.67;;;;;17.99;73.25;100263.47;5064458;28;47215;-80
2023/04/14 08:15:14;;;;;;;;;8.00;8.00;;;;;18.07;72.68;100258.78;5083762;28;45353;-80
2023/04/14 08:17:40;;;;;;;;;9.33;9.00;;;;;18.14;73.70;100248.75;5083154;28;45152;-78
2023/04/14 08:20:06;;;;;;;;;5.00;5.00;;;;;18.33;72.68;100256.66;5065405;28;45856;-77
2023/04/14 08:22:34;;;;;;;;;11.33;11.33;;;;;18.46;72.54;100260.97;5063915;28;45972;-79
2023/04/14 08:25:01;;;;;;;;;7.00;7.00;;;;;18.50;72.16;100254.03;5064726;28;45559;-79
2023/04/14 08:27:26;;;;;;;;;6.67;6.67;;;;;18.54;71.85;100247.94;5082122;28;45304;-76
2023/04/14 08:29:53;;;;;;;;;7.00;7.00;;;;;18.60;70.88;100239.94;5081469;28;45267;-77
2023/04/14 08:32:18;;;;;;;;;8.00;6.67;;;;;18.74;71.03;100251.25;5081533;28;45258;-78
2023/04/14 08:34:43;;;;;;;;;8.00;8.00;;;;;18.83;70.91;100248.97;5080162;28;45619;-78
2023/04/14 08:37:08;;;;;;;;;7.67;7.67;;;;;18.89;70.44;100231.88;5080899;28;54328;-78
2023/04/14 08:39:34;;;;;;;;;5.00;5.00;;;;;19.03;70.75;100233.19;5081284;27;45504;-81
2023/04/14 08:42:00;;;;;;;;;7.67;7.67;;;;;19.18;70.18;100238.03;5081564;27;45313;-79
2023/04/14 08:44:25;;;;;;;;;7.00;7.00;;;;;19.23;69.53;100225.72;5080042;28;45245;-78
2023/04/14 08:46:54;;;;;;;;;6.00;6.00;;;;;19.37;68.55;100243.19;5082628;27;45427;-76
2023/04/14 08:49:43;;;;;;;;;5.00;5.00;;;;;19.41;69.43;100238.13;5081580;27;45439;-82
2023/04/14 08:52:10;;;;;;;;;6.67;6.67;;;;;19.43;69.95;100236.00;5082100;27;45457;-80
2023/04/14 08:54:40;;;;;;;;;5.00;5.00;;;;;19.51;68.65;100230.19;5079641;28;45332;-81
2023/04/14 08:57:11;;;;;;;;;6.33;6.33;;;;;19.52;67.79;100215.63;5051386;28;45387;-80
2023/04/14 08:59:36;;;;;;;;;5.00;5.00;;;;;19.61;68.09;100237.63;5060322;28;46910;-80
2023/04/14 09:02:05;;;;;;;;;6.33;6.00;;;;;19.65;67.91;100232.53;5081332;28;45473;-79
2023/04/14 09:04:32;;;;;;;;;6.00;6.00;;;;;19.71;66.03;100222.63;5082017;28;45330;-79
2023/04/14 09:06:58;;;;;;;;;6.33;6.33;;;;;19.87;67.48;100218.28;5071166;28;45437;-80
2023/04/14 09:09:24;;;;;;;;;5.00;5.00;;;;;19.90;67.79;100196.19;5050349;28;45953;-81
2023/04/14 09:11:50;;;;;;;;;3.67;3.67;;;;;20.13;67.66;100205.97;5070427;28;45283;-83
2023/04/14 09:14:17;;;;;;;;;6.00;6.00;;;;;20.31;66.50;100215.63;5052054;28;45402;-81
2023/04/14 09:16:42;;;;;;;;;4.33;4.33;;;;;20.33;65.87;100207.28;5061736;28;45386;-79
2023/04/14 09:19:08;;;;;;;;;5.33;5.33;;;;;20.35;64.90;100209.72;5061139;28;45624;-81
2023/04/14 09:21:35;;;;;;;;;6.00;6.00;;;;;20.26;64.12;100196.66;5079616;28;45432;-79
2023/04/14 09:24:00;;;;;;;;;6.00;6.00;;;;;20.21;62.74;100190.41;5080293;28;45473;-79
2023/04/14 09:26:27;;;;;;;;;4.00;4.00;;;;;20.29;63.50;100195.31;5062212;28;45393;-80
2023/04/14 09:29:08;;;;;;;;;2.67;2.67;;;;;20.45;63.23;100201.72;5075979;28;45503;-79
2023/04/14 09:31:34;;;;;;;;;4.00;3.00;;;;;20.50;63.49;100203.66;5058014;28;47203;-79
2023/04/14 09:33:59;;;;;;;;;3.33;3.33;;;;;20.46;63.82;100195.25;5079985;28;45280;-79
2023/04/14 09:36:27;;;;;;;;;3.00;3.00;;;;;20.42;63.73;100178.75;5079396;28;45441;-80
2023/04/14 09:38:53;;;;;;;;;3.00;2.33;;;;;20.50;63.01;100187.47;5061440;28;47314;-80
2023/04/14 09:41:21;;;;;;;;;2.33;2.33;;;;;20.48;62.99;100187.72;5072224;28;45480;-79
2023/04/14 09:43:47;;;;;;;;;1.67;1.67;;;;;20.59;61.99;100175.13;5068821;28;45491;-78
2023/04/14 09:46:14;;;;;;;;;2.67;2.67;;;;;20.58;62.54;100161.88;5079685;28;45343;-79
2023/04/14 09:48:55;;;;;;;;;3.33;3.33;;;;;20.73;61.81;100156.63;5080517;28;45317;-78
2023/04/14 09:51:22;;;;;;;;;2.33;2.33;;;;;20.73;60.83;100164.75;5080178;28;45564;-79
2023/04/14 09:53:48;;;;;;;;;1.33;1.33;;;;;20.66;58.69;100147.94;5080014;28;45380;-79
2023/04/14 09:56:14;;;;;;;;;1.33;1.33;;;;;20.74;59.91;100160.16;5080443;28;45449;-78
2023/04/14 09:58:44;;;;;;;;;1.67;1.67;;;;;20.67;59.36;100154.97;5079107;28;46304;-79
2023/04/14 10:01:15;;;;;;;;;0.67;0.67;;;;;20.59;59.83;100148.13;5081323;28;48244;-78
2023/04/14 10:03:46;;;;;;;;;1.00;1.00;;;;;20.59;59.13;100144.63;5083056;28;45395;-79
2023/04/14 10:06:15;;;;;;;;;3.00;3.00;;;;;20.57;59.39;100144.91;5065015;28;45800;-79
2023/04/14 10:08:43;;;;;;;;;0.67;0.67;;;;;20.58;58.28;100149.22;5060655;28;45336;-79
2023/04/14 10:11:28;;;;;;;;;1.33;1.33;;;;;20.43;57.94;100139.09;5060406;28;45354;-78
2023/04/14 10:13:59;;;;;;;;;1.33;1.33;;;;;20.39;57.06;100138.81;5042569;28;45828;-79
2023/04/14 10:16:25;;;;;;;;;1.33;1.33;;;;;20.41;58.61;100138.53;5026013;28;45337;-79
2023/04/14 10:18:51;;;;;;;;;2.33;2.33;;;;;20.57;57.64;100147.59;5060922;28;45242;-79
2023/04/14 10:21:17;;;;;;;;;2.33;1.67;;;;;20.56;58.90;100148.66;5041107;28;46118;-77
2023/04/14 10:23:43;;;;;;;;;1.33;1.33;;;;;20.55;56.81;100145.16;5059389;28;45304;-79
2023/04/14 10:26:11;;;;;;;;;1.00;1.00;;;;;20.42;57.64;100132.06;5042791;28;45352;-78
2023/04/14 10:28:39;;;;;;;;;2.00;2.00;;;;;20.46;58.86;100126.97;5044008;28;46097;-79
2023/04/14 10:31:08;;;;;;;;;0.33;0.33;;;;;20.54;59.41;100127.34;5079814;27;45375;-80
2023/04/14 10:33:37;;;;;;;;;1.00;1.00;;;;;20.53;59.00;100127.59;5080151;27;45329;-80
2023/04/14 10:36:03;;;;;;;;;2.67;1.67;;;;;20.49;59.87;100119.19;5080623;27;45319;-77
2023/04/14 10:38:41;;;;;;;;;2.33;1.33;;;;;20.62;60.14;100125.22;5079576;27;45463;-78
2023/04/14 10:41:06;;;;;;;;;0.67;0.67;;;;;20.65;59.52;100114.72;5077338;27;45406;-78
2023/04/14 10:43:34;;;;;;;;;0.33;0.33;;;;;20.72;58.25;100102.91;5054466;28;45288;-78
2023/04/14 10:45:59;;;;;;;;;0.33;0.33;;;;;20.84;58.09;100110.81;5074774;28;45569;-78
2023/04/14 10:48:37;;;;;;;;;0.33;0.33;;;;;20.68;58.35;100103.41;5078363;28;45312;-77
2023/04/14 10:51:04;;;;;;;;;0.33;0.33;;;;;20.78;59.17;100118.06;5072158;28;45486;-78
2023/04/14 10:53:54;;;;;;;;;2.00;2.00;;;;;20.72;57.89;100100.19;5062198;28;45319;-79
2023/04/14 10:56:20;;;;;;;;;0.67;0.67;;;;;20.64;58.73;100098.78;5064766;28;45297;-77
2023/04/14 10:58:57;;;;;;;;;1.33;1.33;;;;;20.62;58.98;100098.25;5064406;28;47091;-77
2023/04/14 11:01:29;;;;;;;;;2.00;0.33;;;;;20.62;59.29;100090.16;5082897;28;45863;-78
2023/04/14 11:03:55;;;;;;;;;0.33;0.33;;;;;20.58;59.86;100089.84;5082961;28;45338;-77
2023/04/14 11:06:45;;;;;;;;;1.00;1.00;;;;;20.55;59.06;100091.16;5079215;28;45479;-79
2023/04/14 11:09:29;;;;;;;;;2.00;2.00;;;;;20.65;58.41;100092.34;5081086;28;45391;-78
2023/04/14 11:11:55;;;;;;;;;0.67;0.33;;;;;20.48;58.45;100092.44;5081740;28;45511;-77
2023/04/14 11:14:29;;;;;;;;;1.33;1.33;;;;;20.49;57.92;100084.09;5081289;28;45303;-79
2023/04/14 11:17:03;;;;;;;;;4.00;2.00;;;;;20.54;57.79;100078.75;5082339;28;45337;-78
2023/04/14 11:19:30;;;;;;;;;5.00;2.33;;;;;20.53;57.80;100074.41;5082387;28;45521;-78
2023/04/14 11:21:56;;;;;;;;;1.67;1.33;;;;;20.51;58.73;100071.16;5063588;28;46707;-79
2023/04/14 11:24:25;;;;;;;;;1.00;1.00;;;;;20.59;57.59;100066.38;5080934;28;45326;-79
2023/04/14 11:26:52;;;;;;;;;0.67;0.67;;;;;20.49;57.40;100054.41;5077867;28;45493;-79